Whitleys Peak, Santa Catalina Island Weather observations

Data are for 10 minute period ending at time listed.
 Day   Time   Solar   Ave.   Ave.  Ave.  Vector    Max.   Stn.    Total
  of    of     Rad.   Air    Rel.  Wind   Wind     Wind   Baro.  Precip.
Year   Day            Temp.  Hum.  Speed  Dir.     Gust   Pres.         
2014   (PST)   W/m2    F      %     mph   deg.      mph    mb.     in.  
------------------------------------------------------------------------
 107   21:20    0.0    54   90.7     3    136.7     5.4    999.0   0.00  
 107   21:30    0.0    54   90.9     4      5.8     5.4    999.0   0.00  
 107   21:40    0.0    54   90.9     4     71.2     7.8    999.0   0.00  
 107   21:50    0.0    54   90.6     7     99.5     9.6    999.0   0.00  
 107   22:00    0.0    54   90.9     4    111.4     9.0    999.0   0.00  
 107   22:10    0.0    54   91.1     1    106.4     3.6    999.0   0.00  
 107   22:20    0.0    54   91.3     2    120.6     3.6    999.0   0.00  
 107   22:30    0.0    54   91.0     4    120.6     8.4    999.0   0.00  
 107   22:40    0.0    54   90.7     4     84.3     6.6    999.0   0.00  
 107   22:50    0.0    54   91.1     4     68.5     8.4    999.0   0.00  
 107   23:00    0.0    54   91.4     7     97.7     9.6    999.0   0.00  
 107   23:10    0.0    54   91.7     5    114.2     7.8    999.0   0.00  
 107   23:20    0.0    54   92.0     3    124.7     6.6    999.0   0.00  
 107   23:30    0.0    54   92.2     4    116.5     7.8    999.0   0.00  
 107   23:40    0.0    54   92.0     6    114.2     9.6    999.0   0.00  
 107   23:50    0.0    54   91.4     7    105.5     9.6    999.0   0.00  
 108    0:00    0.0    54   91.1     6    106.4     9.0    999.0   0.00  
 108    0:10    0.0    54   91.2     6    100.9     9.0    999.0   0.00  
 108    0:20    0.0    54   90.8     6     99.2     9.6    999.0   0.00  
 108    0:30    0.0    54   90.7     6     94.9     8.4    999.0   0.00  
 108    0:40    0.0    54   91.2     6    113.3     8.4    999.0   0.00  
 108    0:50    0.0    54   91.5     6    114.1     9.6    999.0   0.00  
 108    1:00    0.0    54   91.9     4    113.2     9.0    999.0   0.00  
 108    1:10    0.0    54   92.2     6    102.9     9.6    999.0   0.00  
 108    1:20    0.0    54   92.7     4    123.0     8.4    999.0   0.00  
 108    1:30    0.0    54   92.9     4    118.3     7.2    999.0   0.00  
 108    1:40    0.0    54   93.1     5    122.4     9.6    999.0   0.00  
 108    1:50    0.0    54   93.3     7    110.4    10.2    999.0   0.00  
 108    2:00    0.0    54   93.3     6    118.2     9.6    999.0   0.00  
 108    2:10    0.0    54   93.2     8    108.0    10.8    999.0   0.00  
 108    2:20    0.0    54   93.0     6    110.9    10.2    999.0   0.00  
 108    2:30    0.0    54   92.6     6    107.5     8.4    999.0   0.00  
 108    2:40    0.0    54   92.3     6    104.3    10.8    999.0   0.00  
 108    2:50    0.0    54   92.3     6    116.0     9.0    999.0   0.00  
 108    3:00    0.0    54   92.6     7    113.7    11.3    999.0   0.00  
 108    3:10    0.0    54   92.9     8    111.4    12.5    999.0   0.00  
 108    3:20    0.0    54   93.2     7    124.6    13.1    999.0   0.00  
 108    3:30    0.0    54   93.0    10    126.5    15.5    999.0   0.00  
 108    3:40    0.0    54   91.4     9    125.1    11.9    999.0   0.00  
 108    3:50    0.0    54   90.5     9    116.1    14.3    999.0   0.00  
 108    4:00    0.0    54   90.8     8    117.5    13.7    999.0   0.00  
 108    4:10    0.0    54   91.3     5     98.9    10.8    999.0   0.00  
 108    4:20    0.0    54   91.6     3    121.2     6.6    999.0   0.00  
 108    4:30    0.0    54   91.8     1    294.6     3.0    999.0   0.00  
 108    4:40    0.0    54   91.8     0    239.4     1.8    999.0   0.00  
 108    4:50    0.0    54   91.6     6    125.0     9.0    999.0   0.00  
 108    5:00    0.0    54   91.6     2    128.2     4.2    999.0   0.00  
 108    5:10    0.0    54   91.8     1    120.0     3.0    999.0   0.00  
 108    5:20    0.0    54   91.8     2    168.6     4.2    999.0   0.00  
 108    5:30    0.0    54   91.6     4    156.0     7.8    999.0   0.00  
 108    5:40    0.0    54   90.7     4    144.5     5.4    999.0   0.00  
 108    5:50    0.0    54   90.6     2    178.1     5.4    999.0   0.00  
 108    6:00    6.0    54   91.4     2    205.5     4.8    999.0   0.00  
 108    6:10    6.0    54   92.1     3    207.1     5.4    999.0   0.00  
 108    6:20    6.0    54   92.4     3    218.1     4.2    999.0   0.00  
 108    6:30    7.0    54   92.8     2    209.2     4.2    999.0   0.00  
 108    6:40   13.0    54   93.1     2    235.9     3.6    999.0   0.00  
 108    6:50   16.0    54   93.5     3    220.0     4.2    999.0   0.00  
 108    7:00   19.0    54   93.8     1    199.5     3.6    999.0   0.00  
 108    7:10   24.0    54   93.9     0      0.0     0.0    999.0   0.00  
 108    7:20   31.0    54   93.9     0    183.9     1.2    999.0   0.00  
 108    7:30   48.0    54   94.1     2    224.2     4.8    999.0   0.00  
 108    7:40   70.0    54   94.2     2    207.5     5.4    999.0   0.00  
 108    7:50   81.0    54   94.1     1    179.6     4.2    999.0   0.00  
 108    8:00   45.0    55   94.2     1     98.7     4.8    999.0   0.00  
 108    8:10   40.0    54   94.5     0    105.0     4.8    999.0   0.00  
 108    8:20   58.0    54   94.7     1    103.8     4.8    999.0   0.00  
 108    8:30   95.0    54   94.9     0     87.0     2.4    999.0   0.00  
 108    8:40  145.0    54   95.1     0      0.0     0.0    999.0   0.00  
 108    8:50  171.0    54   95.0     0     76.4     3.6    999.0   0.00  
 108    9:00  124.0    54   95.0     2    101.1     6.0    999.0   0.00  
 108    9:10  101.0    54   94.8     4     93.9    11.9    999.0   0.00  
 108    9:20  152.0    54   95.0     4    104.0     9.6    999.0   0.00  
 108    9:30  225.0    55   95.0     0    114.9     4.2    999.0   0.00  
 108    9:40  281.0    55   94.5     1    111.3     6.6    999.0   0.00  
 108    9:50  259.0    56   93.6     1    119.9     4.8    999.0   0.00  
 108   10:00  327.0    56   91.4     4    115.4     9.0    999.0   0.00  
 108   10:10  340.0    58   87.7     7     96.1    12.5    999.0   0.00  
 108   10:20  361.0    57   86.0    11     84.9    14.9    999.0   0.00  
 108   10:30  410.0    58   83.6    10    102.5    14.3    999.0   0.00  
 108   10:40  444.0    59   81.9     9    110.6    15.5    999.0   0.00  
 108   10:50  347.0    59   80.9    10     94.7    17.3    999.0   0.00  
 108   11:00  333.0    58   80.5    11    100.5    16.1    999.0   0.00  
 108   11:10  370.0    59   79.4     9     98.4    15.5    999.0   0.00  
 108   11:20  325.0    59   79.9    10     93.1    14.9    999.0   0.00  
 108   11:30  309.0    59   80.2     9     97.9    14.3    999.0   0.00  
 108   11:40  264.0    58   80.9    10     91.5    13.7    999.0   0.00  
 108   11:50  239.0    58   82.3     9     93.9    12.5    999.0   0.00  
 108   12:00  272.0    59   81.2     8     99.0    11.9    999.0   0.00  
 108   12:10  284.0    59   80.5    10     98.8    13.7    999.0   0.00  
 108   12:20  264.0    59   79.0     9     89.3    12.5    999.0   0.00  
 108   12:30  220.0    60   78.5     7    109.5    10.2    999.0   0.00  
 108   12:40  276.0    60   77.4     8     98.5    11.9    999.0   0.00  
 108   12:50  251.0    59   76.9    10     92.8    12.5    999.0   0.00  
 108   13:00  241.0    59   75.4     8     90.7    11.3    999.0   0.00  
 108   13:10  249.0    60   75.0     5     92.7     9.0    999.0   0.00  
 108   13:20  261.0    60   75.4     4     99.8     9.0    999.0   0.00  
 108   13:30  382.0    62   74.5     4    102.0    13.1    999.0   0.00  
 108   13:40  440.0    62   71.9     4    158.2     6.0    999.0   0.00  
 108   13:50  476.0    63   70.3     4    269.2     6.6    999.0   0.00  
 108   14:00  379.0    62   70.8     4    181.7    19.7    999.0   0.00  
 108   14:10  455.0    63   70.3     5     71.8     8.4    999.0   0.00  
 108   14:20  298.0    61   71.9     5     64.1     7.8    999.0   0.00  
 108   14:30  283.0    61   72.8     5     13.4    11.9    999.0   0.00  
 108   14:40  404.0    59   76.4     8    359.8    12.5    999.0   0.00  
 108   14:50  430.0    59   77.5     8      6.4    11.9    999.0   0.00  
 108   15:00  358.0    59   78.1     8      8.5    13.7    999.0   0.00  
 108   15:10  263.0    58   79.2     7      1.1    10.2    999.0   0.00  
 108   15:20  373.0    58   80.6     7      6.5     9.6    999.0   0.00  
 108   15:30  302.0    58   79.3     5     11.4     7.8    999.0   0.00  
 108   15:40  147.0    58   79.2     5    353.9     9.6    999.0   0.00  
 108   15:50  118.0    58   80.4     6    351.5    10.8    999.0   0.00  
 108   16:00  128.0    57   83.4     5      5.9     8.4    999.0   0.00  
 108   16:10  124.0    58   84.9     3     10.5     7.2    999.0   0.00  
 108   16:20  116.0    59   82.5     3    312.2     5.4    999.0   0.00  
 108   16:30  107.0    58   81.6     4    292.6     6.6    999.0   0.00  
 108   16:40  135.0    59   81.4     3    317.3     5.4    999.0   0.00  
 108   16:50  124.0    59   80.0     2     27.2     4.8    999.0   0.00  
 108   17:00  131.0    58   84.4     3     88.3     4.2    999.0   0.00  
 108   17:10  205.0    58   85.6     3    110.5     5.4    999.0   0.00  
 108   17:20  193.0    58   84.8     2    107.2     4.2    999.0   0.00  
 108   17:30  139.0    57   85.9     4    112.4     6.0    999.0   0.00  
 108   17:40  119.0    57   86.8     5    123.7     6.6    999.0   0.00  
 108   17:50   92.0    56   88.9     5    119.5     6.6    999.0   0.00  
 108   18:00   66.0    56   90.4     5    121.0     6.6    999.0   0.00  
 108   18:10   38.0    56   90.9     4    128.7     5.4    999.0   0.00  
 108   18:20   17.0    55   90.8     0    141.4     1.8    999.0   0.00  
 108   18:30    8.0    55   90.1     4    215.2     6.6    999.0   0.00  
 108   18:40    2.0    55   88.9     6    229.8     7.2    999.0   0.00  
 108   18:50    0.0    55   88.8     7    219.6     9.0    999.0   0.00  
 108   19:00    0.0    55   89.3     7    206.9     9.0    999.0   0.00  
 108   19:10    0.0    55   90.2     2    200.6     5.4    999.0   0.00  
 108   19:20    0.0    55   89.5     2    111.8     4.8    999.0   0.00  
 108   19:30    0.0    55   88.3     3    123.0     5.4    999.0   0.00  
 108   19:40    0.0    54   90.0     5    206.1     7.2    999.0   0.00  
 108   19:50    0.0    54   91.9     6    205.9     7.2    999.0   0.00  
 108   20:00    0.0    54   93.1     6    207.3     8.4    999.0   0.00  
 108   20:10    0.0    54   93.6     6    195.8     8.4    999.0   0.00  
 108   20:20    0.0    54   93.7     6    199.1     7.2    999.0   0.00  
 108   20:30    1.0    54   93.7     5    197.3     6.0    999.0   0.00  
 108   20:40    3.0    54   93.8     5    192.9     6.6    999.0   0.00  
 108   20:50    3.0    54   93.8     4    186.4     6.0    999.0   0.00  
 108   21:00    3.0    54   94.0     5    200.2     6.0    999.0   0.00  
 108   21:10    6.0    53   94.3     6    193.0     7.2    999.0   0.00  

Return to Whitleys Peak graphs page.


Western Regional Climate Center,wrcc@dri.edu